Maldives Meteorological Service

TAFS

Station TAF
VRMM
VRMM 181100Z 1812/1918 23005KT 9999 FEW018TCU TEMPO 1812/1818 5000 –SHRA FEW018CB=
VRMH
VRMH 181100Z 1812/1918 29006KT 9999 FEW018 TEMPO 1812/1818 FEW018CB=
VRMK
VRMK 181100Z 1812/1912 13006KT 9999 FEW018TCU TEMPO 1812/1818 5000 -TSRA FEW018CB=
VRMT
VRMT 181100Z 1812/1912 15006KT 9999 FEW018TCU TEMPO 1813/1819 5000 –TSRA FEW018CB=
VRMG
VRMG 181100Z 1812/1918 14009KT 9999 FEW018TCU TEMPO 1812/1818 4000 TSRA FEW017CB=